Alta Hill, California
Current Conditions -  °F | °C
As of 7:20 PM on Monday 26 Jan 2015 (Local Time) from KGOO Reporting Station
Clear Clear  
Wind Chill: 55°   Ceiling: Unl
Heat Index: 55°   Visibility: 10mi
Dew Point: 32°   Wind: 5mph
Humidity: 41%   Direction: 140°SE
Pressure: 30.04"   Gusts: NA
Location:  39.2183°N, 120.924°W
Report Text: KGOO 270320Z AUTO 14004KT 10SM CLR 13/00 A3004 RMK AO1
Loading
Personal Weather Stations






























Interactive Weather Map New forecast layout! Learn more

10-Day Weather Forecast

Advertisements
Track Severe Weather on mobile